Time;durP1;ratioP1;P1;durP2;ratioP2;P2;SDS_P1;SDS_P2;PMS_P1;PMS_P2;Temp;Humidity;BMP_temperature;BMP_pressure;BME280_temperature;BME280_humidity;BME280_pressure;Samples;Min_cycle;Max_cycle;Signal;HPM_P1;HPM_P2
2022/04/04 00:01:23;;;;;;;10.13;5.70;;;3.00;99.90;;;;;;5045009;28;20401;-58
2022/04/04 00:03:49;;;;;;;7.63;5.47;;;3.00;99.90;;;;;;5062646;28;20076;-58
2022/04/04 00:06:15;;;;;;;9.20;5.03;;;3.00;99.90;;;;;;5041263;28;20056;-58
2022/04/04 00:08:42;;;;;;;7.13;5.50;;;3.10;99.90;;;;;;5063469;28;20522;-58
2022/04/04 00:11:08;;;;;;;12.70;5.53;;;3.00;99.90;;;;;;5045855;28;20045;-58
2022/04/04 00:13:34;;;;;;;7.90;5.18;;;3.00;99.90;;;;;;5043419;28;20053;-58
2022/04/04 00:16:01;;;;;;;7.65;5.63;;;3.00;99.90;;;;;;5046167;28;20047;-52
2022/04/04 00:18:27;;;;;;;7.70;4.95;;;3.00;99.90;;;;;;5046149;28;20344;-50
2022/04/04 00:20:53;;;;;;;7.22;5.80;;;3.00;99.90;;;;;;5051091;28;20049;-50
2022/04/04 00:23:19;;;;;;;8.20;6.03;;;3.00;99.90;;;;;;5048040;28;20056;-58
2022/04/04 00:25:46;;;;;;;9.05;5.60;;;3.00;99.90;;;;;;5051473;28;20166;-58
2022/04/04 00:28:13;;;;;;;8.88;5.47;;;3.00;99.90;;;;;;5051276;28;20451;-58
2022/04/04 00:30:40;;;;;;;10.45;5.75;;;3.00;99.90;;;;;;5011626;28;20057;-58
2022/04/04 00:33:07;;;;;;;7.20;5.65;;;3.00;99.90;;;;;;5047848;28;20058;-58
2022/04/04 00:35:34;;;;;;;9.77;5.35;;;3.00;99.90;;;;;;5053677;28;20125;-58
2022/04/04 00:38:04;;;;;;;7.13;5.80;;;3.10;99.90;;;;;;5031751;28;20052;-58
2022/04/04 00:40:30;;;;;;;8.50;5.82;;;3.00;99.90;;;;;;5049415;28;20106;-52
2022/04/04 00:42:57;;;;;;;9.80;5.93;;;3.00;99.90;;;;;;5044057;28;20059;-51
2022/04/04 00:45:24;;;;;;;6.47;5.32;;;3.00;99.90;;;;;;5047102;28;20049;-51
2022/04/04 00:47:50;;;;;;;9.05;5.40;;;3.00;99.90;;;;;;5067016;28;20041;-58
2022/04/04 00:50:16;;;;;;;8.40;6.10;;;3.00;99.90;;;;;;5058570;28;20123;-58
2022/04/04 00:52:42;;;;;;;7.78;5.07;;;3.00;99.90;;;;;;5065896;28;20087;-58
2022/04/04 00:55:09;;;;;;;9.32;5.97;;;2.90;99.90;;;;;;5051439;28;20565;-58
2022/04/04 00:57:37;;;;;;;11.00;5.95;;;3.00;99.90;;;;;;5034167;28;20050;-58
2022/04/04 01:00:11;;;;;;;8.68;5.88;;;3.00;99.90;;;;;;5054423;28;20048;-58
2022/04/04 01:02:38;;;;;;;10.60;5.88;;;3.00;99.90;;;;;;5053266;28;20043;-58
2022/04/04 01:05:05;;;;;;;10.23;6.50;;;3.10;99.90;;;;;;5050967;28;20123;-58
2022/04/04 01:07:32;;;;;;;7.93;6.65;;;3.10;99.90;;;;;;5048122;28;20079;-58
2022/04/04 01:09:58;;;;;;;10.23;6.82;;;3.20;99.90;;;;;;5054978;28;20080;-52
2022/04/04 01:12:24;;;;;;;12.88;8.13;;;3.20;99.90;;;;;;5047159;28;20566;-49
2022/04/04 01:14:50;;;;;;;10.82;7.35;;;3.30;99.90;;;;;;5050337;28;20045;-51
2022/04/04 01:17:25;;;;;;;13.05;8.57;;;3.40;99.90;;;;;;5063041;28;20053;-49
2022/04/04 01:19:52;;;;;;;12.20;8.70;;;3.40;99.90;;;;;;5050979;28;20037;-49
2022/04/04 01:22:18;;;;;;;13.32;10.00;;;3.50;99.90;;;;;;5057391;28;20041;-51
2022/04/04 01:24:44;;;;;;;12.60;9.65;;;3.50;99.90;;;;;;5050377;28;20524;-50
2022/04/04 01:27:14;;;;;;;14.25;10.90;;;3.40;99.90;;;;;;5048559;28;20041;-52
2022/04/04 01:29:41;;;;;;;15.57;10.60;;;3.60;99.90;;;;;;5046932;28;20037;-58
2022/04/04 01:32:09;;;;;;;13.55;11.18;;;3.60;99.90;;;;;;5045384;28;20573;-58
2022/04/04 01:34:37;;;;;;;12.90;11.25;;;3.60;99.90;;;;;;5038089;28;20059;-58
2022/04/04 01:37:03;;;;;;;12.48;11.18;;;3.60;99.90;;;;;;5051975;28;20052;-58
2022/04/04 01:39:29;;;;;;;13.77;12.07;;;3.70;99.90;;;;;;5051006;28;20115;-49
2022/04/04 01:41:55;;;;;;;13.50;12.07;;;3.70;99.90;;;;;;5044246;28;20064;-52
2022/04/04 01:44:21;;;;;;;17.33;13.52;;;3.70;99.90;;;;;;5037332;28;20644;-49
2022/04/04 01:46:47;;;;;;;15.05;12.75;;;3.70;99.90;;;;;;5045672;28;20044;-58
2022/04/04 01:49:14;;;;;;;13.10;11.32;;;3.70;99.90;;;;;;5018440;28;20055;-53
2022/04/04 01:51:41;;;;;;;12.95;11.70;;;3.70;99.90;;;;;;5045027;28;20052;-51
2022/04/04 01:54:07;;;;;;;14.07;12.57;;;3.70;99.90;;;;;;5052296;28;20044;-58
2022/04/04 01:56:33;;;;;;;13.25;11.45;;;3.60;99.90;;;;;;5049859;28;20086;-58
2022/04/04 01:59:00;;;;;;;16.70;12.55;;;3.70;99.90;;;;;;5047918;28;20047;-58
2022/04/04 02:01:27;;;;;;;14.45;11.88;;;3.70;99.90;;;;;;5066386;28;20040;-59
2022/04/04 02:03:56;;;;;;;14.52;13.02;;;3.70;99.90;;;;;;5050174;28;20068;-58
2022/04/04 02:06:23;;;;;;;14.27;12.77;;;3.80;99.90;;;;;;5035403;28;20140;-58
2022/04/04 02:08:50;;;;;;;13.95;12.55;;;3.80;99.90;;;;;;5044628;28;20114;-58
2022/04/04 02:11:18;;;;;;;16.95;13.68;;;3.90;99.90;;;;;;5045573;28;20048;-58
2022/04/04 02:13:44;;;;;;;14.43;12.45;;;3.90;99.90;;;;;;5069656;28;20056;-58
2022/04/04 02:16:11;;;;;;;16.70;13.05;;;4.00;99.90;;;;;;5054074;28;20051;-58
2022/04/04 02:18:37;;;;;;;15.35;13.75;;;4.10;99.90;;;;;;5058665;28;20482;-58
2022/04/04 02:21:05;;;;;;;13.23;11.70;;;4.10;99.90;;;;;;5049757;28;20044;-58
2022/04/04 02:23:32;;;;;;;15.80;13.45;;;4.20;99.90;;;;;;5066700;28;20045;-58
2022/04/04 02:25:58;;;;;;;17.48;14.10;;;4.20;99.90;;;;;;5054493;28;20332;-58
2022/04/04 02:28:25;;;;;;;19.27;14.15;;;4.30;99.90;;;;;;5066860;28;20048;-58
2022/04/04 02:30:55;;;;;;;19.02;13.15;;;4.30;99.90;;;;;;5029403;28;20506;-58
2022/04/04 02:33:22;;;;;;;18.08;15.20;;;4.30;99.90;;;;;;5044639;28;20477;-59
2022/04/04 02:35:51;;;;;;;18.02;14.32;;;4.30;99.90;;;;;;5051793;28;20574;-58
2022/04/04 02:38:19;;;;;;;18.38;14.05;;;4.30;99.90;;;;;;5055047;28;20071;-58
2022/04/04 02:40:45;;;;;;;17.77;14.15;;;4.30;99.90;;;;;;5047359;28;20094;-58
2022/04/04 02:43:12;;;;;;;19.73;14.48;;;4.40;99.90;;;;;;5049231;28;20049;-58
2022/04/04 02:45:39;;;;;;;18.92;14.02;;;4.40;99.90;;;;;;5052680;28;20070;-58
2022/04/04 02:48:05;;;;;;;17.00;14.45;;;4.40;99.90;;;;;;5051538;28;20385;-58
2022/04/04 02:50:31;;;;;;;18.42;14.70;;;4.40;99.90;;;;;;5052654;28;20048;-53
2022/04/04 02:52:57;;;;;;;18.08;14.75;;;4.40;99.90;;;;;;5047119;28;20055;-53
2022/04/04 02:58:09;;;;;;;17.20;14.48;;;4.50;99.90;;;;;;5054771;28;20466;-51
2022/04/04 03:00:35;;;;;;;18.90;14.75;;;4.50;99.90;;;;;;5045411;28;20118;-58
2022/04/04 03:03:01;;;;;;;17.17;14.43;;;4.50;99.90;;;;;;5052793;28;20072;-58
2022/04/04 03:05:28;;;;;;;19.85;15.05;;;4.60;99.90;;;;;;5039259;28;20041;-58
2022/04/04 03:07:54;;;;;;;17.17;14.20;;;4.60;99.90;;;;;;5050294;28;20276;-51
2022/04/04 03:10:21;;;;;;;20.38;15.23;;;4.70;99.90;;;;;;5047294;28;20049;-48
2022/04/04 03:12:49;;;;;;;17.08;15.15;;;4.70;99.90;;;;;;5061125;28;20044;-50
2022/04/04 03:15:18;;;;;;;19.10;14.65;;;4.70;99.90;;;;;;5047239;28;20523;-52
2022/04/04 03:17:47;;;;;;;18.85;14.93;;;4.80;99.90;;;;;;5052080;28;20363;-53
2022/04/04 03:20:14;;;;;;;19.55;15.10;;;4.80;99.90;;;;;;5033300;28;20056;-52
2022/04/04 03:22:43;;;;;;;18.50;14.23;;;4.80;99.90;;;;;;5044589;28;20067;-51
2022/04/04 03:25:11;;;;;;;20.13;14.93;;;4.90;99.90;;;;;;5045906;28;20074;-58
2022/04/04 03:27:39;;;;;;;17.17;14.57;;;4.90;99.90;;;;;;5050819;28;20059;-58
2022/04/04 03:30:11;;;;;;;17.15;15.35;;;5.00;99.90;;;;;;5049953;28;20044;-58
2022/04/04 03:32:38;;;;;;;16.98;15.15;;;5.00;99.90;;;;;;5054633;28;20802;-58
2022/04/04 03:35:05;;;;;;;16.98;13.50;;;5.00;99.90;;;;;;5051004;28;20083;-58
2022/04/04 03:37:33;;;;;;;16.98;14.55;;;5.00;99.90;;;;;;5036859;28;20052;-58
2022/04/04 03:40:00;;;;;;;20.00;14.05;;;5.00;99.90;;;;;;5045480;28;20056;-58
2022/04/04 03:42:26;;;;;;;16.65;14.57;;;5.10;99.90;;;;;;5047596;28;20574;-58
2022/04/04 03:44:53;;;;;;;17.65;14.57;;;5.10;99.90;;;;;;5051005;28;20451;-58
2022/04/04 03:47:20;;;;;;;18.75;13.43;;;5.10;99.90;;;;;;5046931;28;20045;-58
2022/04/04 03:49:46;;;;;;;19.67;14.65;;;5.10;99.90;;;;;;5053401;28;20048;-58
2022/04/04 03:52:12;;;;;;;17.45;14.02;;;5.10;99.90;;;;;;5051031;28;20163;-53
2022/04/04 03:54:39;;;;;;;17.25;13.55;;;5.20;99.90;;;;;;5043260;28;20544;-51
2022/04/04 03:57:05;;;;;;;20.83;14.10;;;5.20;99.90;;;;;;5046527;28;20072;-49
2022/04/04 03:59:31;;;;;;;15.60;13.75;;;5.20;99.90;;;;;;5048762;28;20084;-57
2022/04/04 04:01:57;;;;;;;20.35;13.90;;;5.10;99.90;;;;;;5030526;28;20041;-58
2022/04/04 04:04:23;;;;;;;17.75;14.93;;;5.10;99.90;;;;;;5044432;28;20124;-58
2022/04/04 04:06:51;;;;;;;18.27;13.25;;;5.20;99.90;;;;;;5033548;28;20064;-58
2022/04/04 04:09:18;;;;;;;17.73;14.38;;;5.20;99.90;;;;;;5051029;28;20055;-58
2022/04/04 04:11:45;;;;;;;16.05;13.80;;;5.20;99.90;;;;;;5050711;28;20044;-59
2022/04/04 04:14:11;;;;;;;15.63;13.30;;;5.20;99.90;;;;;;5044904;28;20505;-58
2022/04/04 04:16:37;;;;;;;17.00;13.95;;;5.30;99.90;;;;;;5063924;28;20408;-58
2022/04/04 04:19:03;;;;;;;15.15;13.57;;;5.30;99.90;;;;;;5048451;28;20528;-58
2022/04/04 04:21:29;;;;;;;14.88;12.80;;;5.30;99.90;;;;;;5052983;28;20453;-58
2022/04/04 04:23:55;;;;;;;15.00;13.13;;;5.30;99.90;;;;;;5049375;28;20079;-50
2022/04/04 04:26:21;;;;;;;16.08;12.80;;;5.30;99.90;;;;;;5054701;28;20130;-51
2022/04/04 04:28:48;;;;;;;19.90;13.75;;;5.30;99.90;;;;;;5037171;28;20086;-50
2022/04/04 04:31:18;;;;;;;16.05;12.73;;;5.20;99.90;;;;;;5050710;28;20560;-50
2022/04/04 04:33:44;;;;;;;19.45;14.00;;;5.20;99.90;;;;;;5043076;28;20087;-50
2022/04/04 04:36:11;;;;;;;17.52;14.82;;;5.20;99.90;;;;;;5041809;28;20065;-52
2022/04/04 04:38:37;;;;;;;17.40;13.85;;;5.20;99.90;;;;;;5056646;28;20380;-49
2022/04/04 04:41:04;;;;;;;15.65;13.85;;;5.10;99.90;;;;;;5049678;28;20049;-49
2022/04/04 04:43:30;;;;;;;16.60;14.70;;;5.10;99.90;;;;;;5042462;28;20048;-48
2022/04/04 04:45:56;;;;;;;21.48;14.70;;;5.10;99.90;;;;;;5036717;28;20053;-51
2022/04/04 04:48:22;;;;;;;17.65;14.35;;;5.00;99.90;;;;;;5041637;28;20052;-50
2022/04/04 04:50:48;;;;;;;18.08;15.10;;;5.00;99.90;;;;;;5035071;28;20049;-49
2022/04/04 04:53:15;;;;;;;18.20;14.30;;;4.90;99.90;;;;;;5039670;28;20083;-52
2022/04/04 04:55:41;;;;;;;20.23;14.77;;;5.00;99.90;;;;;;5058456;28;20052;-50
2022/04/04 04:58:07;;;;;;;21.70;15.77;;;5.00;99.90;;;;;;5043359;28;20052;-48
2022/04/04 05:00:34;;;;;;;18.70;14.80;;;5.00;99.90;;;;;;5038592;28;20079;-49
2022/04/04 05:05:46;;;;;;;20.25;15.50;;;5.00;99.90;;;;;;5043017;28;20040;-52
2022/04/04 05:08:12;;;;;;;19.17;15.60;;;5.10;99.90;;;;;;5041297;28;20419;-50
2022/04/04 05:10:38;;;;;;;19.85;14.50;;;5.10;99.90;;;;;;5026065;28;20148;-49
2022/04/04 05:13:05;;;;;;;18.50;15.75;;;5.10;99.90;;;;;;5042664;28;20079;-52
2022/04/04 05:15:31;;;;;;;21.85;15.90;;;5.10;99.90;;;;;;5064741;28;20059;-48
2022/04/04 05:17:57;;;;;;;18.80;16.10;;;5.10;99.90;;;;;;5058615;28;20044;-50
2022/04/04 05:20:23;;;;;;;18.17;15.07;;;5.10;99.90;;;;;;5058406;28;20045;-50
2022/04/04 05:22:49;;;;;;;16.90;15.05;;;5.20;99.90;;;;;;5053501;28;20124;-50
2022/04/04 05:25:15;;;;;;;19.92;15.93;;;5.20;99.90;;;;;;5041437;28;20097;-58
2022/04/04 05:27:42;;;;;;;17.70;15.95;;;5.20;99.90;;;;;;5044434;28;20110;-58
2022/04/04 05:30:09;;;;;;;19.45;15.65;;;5.20;99.90;;;;;;5042795;28;20049;-58
2022/04/04 05:32:36;;;;;;;21.00;15.30;;;5.20;99.90;;;;;;5042264;28;20075;-58
2022/04/04 05:35:06;;;;;;;18.40;14.73;;;5.20;99.90;;;;;;5042677;28;20057;-58
2022/04/04 05:37:33;;;;;;;17.48;14.15;;;5.20;99.90;;;;;;5056678;28;20055;-50
2022/04/04 05:39:59;;;;;;;18.10;14.18;;;5.20;99.90;;;;;;5043660;28;20102;-54
2022/04/04 05:42:26;;;;;;;18.20;13.48;;;5.30;99.90;;;;;;5025215;28;20709;-51
2022/04/04 05:44:52;;;;;;;16.95;13.70;;;5.30;99.90;;;;;;5044246;28;20057;-48
2022/04/04 05:47:20;;;;;;;15.68;13.77;;;5.30;99.90;;;;;;5039984;28;20151;-50
2022/04/04 05:49:50;;;;;;;18.30;14.32;;;5.30;99.90;;;;;;5040533;28;20598;-48
2022/04/04 05:52:20;;;;;;;16.75;14.27;;;5.30;99.90;;;;;;5041373;28;20429;-48
2022/04/04 05:54:58;;;;;;;16.92;13.02;;;5.20;99.90;;;;;;5038267;28;20452;-52
2022/04/04 05:57:28;;;;;;;20.90;13.63;;;5.20;99.90;;;;;;5024601;28;20193;-50
2022/04/04 05:59:54;;;;;;;16.58;13.18;;;5.20;99.90;;;;;;5036668;28;20519;-49
2022/04/04 06:02:26;;;;;;;19.23;13.80;;;5.10;99.90;;;;;;5056222;28;20052;-54
2022/04/04 06:04:53;;;;;;;19.13;14.18;;;5.10;99.90;;;;;;5024795;28;20052;-49
2022/04/04 06:07:19;;;;;;;15.85;13.32;;;5.00;99.90;;;;;;5057162;28;20060;-48
2022/04/04 06:09:45;;;;;;;15.68;14.05;;;5.00;99.90;;;;;;5042180;28;20056;-49
2022/04/04 06:12:12;;;;;;;16.83;14.00;;;5.00;99.90;;;;;;5038516;28;20483;-51
2022/04/04 06:14:38;;;;;;;15.00;13.35;;;4.90;99.90;;;;;;5039802;28;20049;-48
2022/04/04 06:17:05;;;;;;;17.55;13.25;;;4.80;99.90;;;;;;5035145;28;20041;-49
2022/04/04 06:19:34;;;;;;;17.20;13.52;;;4.90;99.90;;;;;;5053846;28;20044;-49
2022/04/04 06:22:04;;;;;;;17.55;13.80;;;5.00;99.90;;;;;;5040368;28;20047;-49
2022/04/04 06:24:31;;;;;;;17.42;14.35;;;5.00;99.90;;;;;;5041420;28;20401;-49
2022/04/04 06:26:58;;;;;;;17.90;14.68;;;4.90;99.90;;;;;;5041512;28;20486;-50
2022/04/04 06:29:24;;;;;;;17.05;14.80;;;4.90;99.90;;;;;;5040824;28;20056;-47
2022/04/04 06:31:53;;;;;;;15.75;13.80;;;4.90;99.90;;;;;;5041961;28;20436;-50
2022/04/04 06:34:20;;;;;;;16.08;14.18;;;4.90;99.90;;;;;;5038418;28;20111;-50
2022/04/04 06:36:47;;;;;;;20.33;14.55;;;4.90;99.90;;;;;;5041114;28;20098;-50
2022/04/04 06:39:13;;;;;;;20.25;15.52;;;4.80;99.90;;;;;;5039894;28;20040;-53
2022/04/04 06:41:40;;;;;;;17.83;14.45;;;4.70;99.90;;;;;;5041639;28;20047;-49
2022/04/04 06:44:06;;;;;;;17.08;14.68;;;4.80;99.90;;;;;;5039523;28;20144;-53
2022/04/04 06:46:36;;;;;;;17.30;15.10;;;4.80;99.90;;;;;;5041153;28;20056;-49
2022/04/04 06:49:03;;;;;;;18.60;15.25;;;4.70;99.90;;;;;;5048349;28;20041;-51
2022/04/04 06:51:29;;;;;;;17.65;15.15;;;4.80;99.90;;;;;;5023240;28;20404;-52
2022/04/04 06:53:55;;;;;;;18.60;14.57;;;4.70;99.90;;;;;;5040041;28;20045;-49
2022/04/04 06:56:21;;;;;;;18.00;15.38;;;4.70;99.90;;;;;;5040786;28;20053;-49
2022/04/04 06:58:47;;;;;;;19.98;15.90;;;4.70;99.90;;;;;;5039387;28;20093;-48
2022/04/04 07:01:13;;;;;;;18.50;16.50;;;4.60;99.90;;;;;;5041450;28;20036;-51
2022/04/04 07:03:40;;;;;;;21.00;17.80;;;4.60;99.90;;;;;;5021311;28;20059;-51
2022/04/04 07:06:07;;;;;;;19.63;16.65;;;4.60;99.90;;;;;;5040008;28;20508;-50
2022/04/04 07:08:33;;;;;;;20.23;17.02;;;4.60;99.90;;;;;;5051930;28;20607;-48
2022/04/04 07:11:00;;;;;;;21.73;18.48;;;4.60;99.90;;;;;;5036594;28;20378;-51
2022/04/04 07:13:26;;;;;;;18.67;16.55;;;4.50;99.90;;;;;;5039521;28;20465;-53
2022/04/04 07:15:52;;;;;;;18.08;16.10;;;4.50;99.90;;;;;;5040763;28;20041;-49
2022/04/04 07:18:18;;;;;;;20.90;18.33;;;4.60;99.90;;;;;;5023493;28;20139;-52
2022/04/04 07:20:45;;;;;;;22.13;16.63;;;4.40;99.90;;;;;;5022263;28;20280;-50
2022/04/04 07:23:11;;;;;;;21.40;17.65;;;4.50;99.90;;;;;;5039580;28;20033;-49
2022/04/04 07:25:38;;;;;;;21.17;18.50;;;4.50;99.90;;;;;;5021897;28;20075;-48
2022/04/04 07:28:04;;;;;;;22.70;18.75;;;4.60;99.90;;;;;;5022479;28;20055;-51
2022/04/04 07:30:30;;;;;;;20.80;18.85;;;4.60;99.90;;;;;;5039199;28;20412;-47
2022/04/04 07:32:57;;;;;;;22.65;19.10;;;4.60;99.90;;;;;;5041597;28;20398;-52
2022/04/04 07:35:23;;;;;;;22.52;19.38;;;4.60;99.90;;;;;;5041159;28;20075;-48
2022/04/04 07:37:50;;;;;;;22.00;19.70;;;4.50;99.90;;;;;;5038926;28;20045;-51
2022/04/04 07:40:18;;;;;;;22.88;20.58;;;4.60;99.90;;;;;;5039352;28;20040;-51
2022/04/04 07:42:45;;;;;;;26.17;23.45;;;4.50;99.90;;;;;;5055806;28;20418;-49
2022/04/04 07:45:13;;;;;;;24.05;21.05;;;4.60;99.90;;;;;;5039468;28;20497;-48
2022/04/04 07:47:40;;;;;;;26.15;23.33;;;4.60;99.90;;;;;;5037891;28;20052;-53
2022/04/04 07:50:09;;;;;;;24.85;22.15;;;4.60;99.90;;;;;;5040360;28;20075;-50
2022/04/04 07:52:35;;;;;;;28.83;23.63;;;4.60;99.90;;;;;;5052964;28;20408;-51
2022/04/04 07:55:01;;;;;;;27.48;24.73;;;4.60;99.90;;;;;;5043950;28;20118;-49
2022/04/04 07:57:27;;;;;;;27.98;25.23;;;4.60;99.90;;;;;;5043310;28;20516;-49
2022/04/04 07:59:53;;;;;;;28.10;25.17;;;4.60;99.90;;;;;;5042814;28;20548;-48
2022/04/04 08:02:19;;;;;;;28.13;25.10;;;4.70;99.90;;;;;;5042064;28;20551;-57
2022/04/04 08:04:46;;;;;;;28.27;25.48;;;4.60;99.90;;;;;;5062497;28;20103;-57
2022/04/04 08:07:13;;;;;;;28.30;25.63;;;4.70;99.90;;;;;;5046051;28;20128;-57
2022/04/04 08:09:39;;;;;;;30.95;27.90;;;4.70;99.90;;;;;;5047410;28;20421;-57
2022/04/04 08:12:06;;;;;;;34.20;28.63;;;4.60;99.90;;;;;;5045590;28;20041;-57
2022/04/04 08:14:36;;;;;;;28.17;25.13;;;4.70;99.90;;;;;;5044672;28;20459;-58
2022/04/04 08:17:03;;;;;;;32.67;29.35;;;4.70;99.90;;;;;;5045372;28;20044;-57
2022/04/04 08:19:30;;;;;;;30.42;27.15;;;4.80;99.90;;;;;;5045348;28;20052;-57
2022/04/04 08:21:56;;;;;;;30.63;27.58;;;4.80;99.90;;;;;;5027089;28;20133;-57
2022/04/04 08:24:22;;;;;;;27.05;24.42;;;4.80;99.90;;;;;;5062290;28;20518;-57
2022/04/04 08:26:49;;;;;;;26.33;23.83;;;4.80;99.90;;;;;;5061139;28;20524;-57
2022/04/04 08:29:17;;;;;;;27.67;24.83;;;4.90;99.90;;;;;;5046503;28;20404;-57
2022/04/04 08:31:43;;;;;;;28.55;25.38;;;4.90;99.90;;;;;;5027418;28;20080;-57
2022/04/04 08:34:10;;;;;;;27.50;24.77;;;4.90;99.90;;;;;;5043849;28;20132;-57
2022/04/04 08:36:36;;;;;;;29.90;26.75;;;5.00;99.90;;;;;;5044545;28;20568;-57
2022/04/04 08:39:03;;;;;;;28.30;25.60;;;4.90;99.90;;;;;;5060651;28;20071;-57
2022/04/04 08:41:31;;;;;;;29.45;26.05;;;5.00;99.90;;;;;;5039183;28;20436;-57
2022/04/04 08:44:01;;;;;;;26.45;23.80;;;5.00;99.90;;;;;;5042919;28;20052;-59
2022/04/04 08:46:28;;;;;;;27.63;24.85;;;5.00;99.90;;;;;;5042404;28;20045;-58
2022/04/04 08:48:58;;;;;;;29.50;24.42;;;5.00;99.90;;;;;;5028083;28;20045;-58
2022/04/04 08:51:27;;;;;;;29.60;25.58;;;5.00;99.90;;;;;;5043147;28;20071;-54
2022/04/04 08:53:54;;;;;;;23.92;21.35;;;5.10;99.90;;;;;;5024525;28;20407;-53
2022/04/04 08:56:24;;;;;;;24.63;22.05;;;5.10;99.90;;;;;;5043609;28;20059;-53
2022/04/04 08:58:52;;;;;;;24.58;21.85;;;5.10;99.90;;;;;;5040469;28;20395;-54
2022/04/04 09:01:19;;;;;;;25.50;22.20;;;5.10;99.90;;;;;;5043128;28;20080;-51
2022/04/04 09:03:59;;;;;;;18.98;16.98;;;5.20;99.90;;;;;;5042125;28;20107;-48
2022/04/04 09:06:28;;;;;;;19.88;17.90;;;5.20;99.90;;;;;;5042199;28;20120;-51
2022/04/04 09:08:56;;;;;;;17.00;14.43;;;5.20;99.90;;;;;;5042995;28;20044;-48
2022/04/04 09:11:22;;;;;;;16.67;12.40;;;5.20;99.90;;;;;;5041463;28;20748;-52
2022/04/04 09:14:08;;;;;;;17.50;13.23;;;5.30;99.90;;;;;;5039590;28;20350;-48
2022/04/04 09:16:34;;;;;;;17.17;12.02;;;5.30;99.90;;;;;;5020546;28;20124;-50
2022/04/04 09:19:01;;;;;;;12.73;9.25;;;5.30;99.90;;;;;;5041319;28;20044;-58
2022/04/04 09:21:31;;;;;;;12.85;9.85;;;5.20;99.90;;;;;;5057623;28;20044;-58
2022/04/04 09:24:07;;;;;;;14.40;10.20;;;5.30;99.90;;;;;;5024181;28;20403;-58
2022/04/04 09:26:37;;;;;;;14.10;10.52;;;5.30;99.90;;;;;;5040550;28;20049;-58
2022/04/04 09:29:12;;;;;;;12.02;9.43;;;5.30;99.90;;;;;;5058601;28;20053;-59
2022/04/04 09:31:52;;;;;;;12.25;9.20;;;5.30;99.90;;;;;;5040553;28;20049;-59
2022/04/04 09:34:19;;;;;;;7.53;6.57;;;5.30;99.90;;;;;;5041177;28;20048;-59
2022/04/04 09:36:47;;;;;;;11.23;7.03;;;5.30;99.90;;;;;;5039524;28;20041;-58
2022/04/04 09:39:15;;;;;;;9.38;6.10;;;5.20;99.90;;;;;;5041887;28;20120;-55
2022/04/04 09:41:41;;;;;;;10.52;6.68;;;5.20;99.90;;;;;;5025064;28;20522;-48
2022/04/04 09:44:08;;;;;;;6.80;5.82;;;5.30;99.90;;;;;;5039055;28;20462;-49
2022/04/04 09:46:39;;;;;;;8.75;6.07;;;5.30;99.90;;;;;;5041992;28;20053;-54
2022/04/04 09:49:15;;;;;;;9.93;7.00;;;5.30;99.90;;;;;;5043423;28;20760;-53
2022/04/04 09:51:50;;;;;;;11.50;7.97;;;5.30;99.90;;;;;;5041754;28;20052;-51
2022/04/04 09:54:26;;;;;;;7.68;6.13;;;5.30;99.90;;;;;;5040923;28;20102;-52
2022/04/04 09:57:16;;;;;;;9.95;6.47;;;5.30;99.90;;;;;;5041845;28;20463;-52
2022/04/04 09:59:43;;;;;;;9.13;6.70;;;5.30;99.90;;;;;;5033210;28;20500;-52
2022/04/04 10:02:12;;;;;;;8.40;7.60;;;5.30;99.90;;;;;;5043099;28;20393;-54
2022/04/04 10:04:41;;;;;;;7.47;6.53;;;5.30;99.90;;;;;;5041633;28;20436;-53
2022/04/04 10:07:09;;;;;;;9.10;7.03;;;5.30;99.90;;;;;;5024724;28;20089;-53
2022/04/04 10:09:36;;;;;;;8.50;5.72;;;5.40;99.90;;;;;;5041020;28;20557;-53
2022/04/04 10:12:03;;;;;;;7.95;6.88;;;5.40;99.90;;;;;;5039443;28;20044;-53
2022/04/04 10:14:35;;;;;;;7.55;6.30;;;5.50;99.90;;;;;;5023923;28;20276;-53
2022/04/04 10:17:02;;;;;;;8.05;6.53;;;5.50;99.90;;;;;;5040928;28;20041;-53
2022/04/04 10:19:29;;;;;;;7.72;6.93;;;5.50;99.90;;;;;;5038264;28;20048;-52
2022/04/04 10:21:55;;;;;;;7.88;6.47;;;5.50;99.90;;;;;;5040742;28;20515;-53
2022/04/04 10:24:22;;;;;;;9.43;7.18;;;5.50;99.90;;;;;;5038369;28;20570;-53
2022/04/04 10:26:50;;;;;;;9.70;7.75;;;5.40;99.90;;;;;;5038953;28;20045;-54
2022/04/04 10:29:19;;;;;;;9.20;7.30;;;5.50;99.90;;;;;;5040809;28;20045;-54
2022/04/04 10:31:49;;;;;;;9.13;6.95;;;5.40;99.90;;;;;;5042069;28;20044;-52
2022/04/04 10:34:21;;;;;;;7.85;6.75;;;5.50;99.90;;;;;;5037613;28;20057;-54
2022/04/04 10:37:01;;;;;;;7.22;6.50;;;5.50;99.90;;;;;;5039765;28;20408;-59
2022/04/04 10:39:31;;;;;;;8.57;7.47;;;5.50;99.90;;;;;;5041171;28;20060;-59
2022/04/04 10:41:58;;;;;;;9.90;7.38;;;5.60;99.90;;;;;;5038439;28;20049;-53
2022/04/04 10:44:47;;;;;;;8.88;7.30;;;5.60;99.90;;;;;;5021375;28;20151;-52
2022/04/04 10:47:22;;;;;;;9.45;8.43;;;5.70;99.90;;;;;;5040720;28;20551;-53
2022/04/04 10:49:48;;;;;;;12.90;8.90;;;5.70;99.90;;;;;;5040570;28;20147;-53
2022/04/04 10:52:19;;;;;;;9.68;7.57;;;5.70;99.90;;;;;;5041403;28;20083;-52
2022/04/04 10:54:46;;;;;;;10.25;8.57;;;5.70;99.90;;;;;;5022736;28;20041;-51
2022/04/04 10:57:16;;;;;;;15.40;8.88;;;5.80;99.90;;;;;;5006181;28;20237;-53
2022/04/04 10:59:48;;;;;;;12.88;8.80;;;5.90;99.90;;;;;;5041119;28;20186;-54
2022/04/04 11:02:18;;;;;;;12.43;9.70;;;5.90;99.90;;;;;;5056716;28;20041;-55
2022/04/04 11:07:39;;;;;;;8.68;7.53;;;5.90;99.90;;;;;;5038999;28;20088;-53
2022/04/04 11:10:06;;;;;;;10.02;8.18;;;6.00;99.90;;;;;;5042234;28;20079;-59
2022/04/04 11:13:03;;;;;;;10.48;7.45;;;6.00;99.90;;;;;;5040214;28;20042;-59
2022/04/04 11:15:49;;;;;;;9.95;8.40;;;6.10;99.90;;;;;;5040703;28;20303;-59
2022/04/04 11:18:16;;;;;;;11.02;7.47;;;6.10;99.90;;;;;;5021508;28;20095;-59
2022/04/04 11:20:50;;;;;;;10.10;8.38;;;6.20;99.90;;;;;;5040830;28;20049;-59
2022/04/04 11:23:17;;;;;;;9.15;7.47;;;6.20;99.90;;;;;;5041305;28;20032;-54
2022/04/04 11:25:54;;;;;;;11.50;8.25;;;6.20;99.90;;;;;;5040028;28;20053;-52
2022/04/04 11:28:22;;;;;;;9.25;6.90;;;6.20;99.90;;;;;;5040242;28;20051;-53
2022/04/04 11:30:53;;;;;;;10.27;7.20;;;6.30;99.90;;;;;;5056084;28;20459;-53
2022/04/04 11:33:23;;;;;;;10.77;8.02;;;6.40;99.90;;;;;;5038108;28;20468;-53
2022/04/04 11:35:50;;;;;;;10.20;7.70;;;6.40;99.90;;;;;;5040134;28;20507;-53
2022/04/04 11:38:19;;;;;;;8.45;6.22;;;6.40;99.90;;;;;;5040696;28;20051;-58
2022/04/04 11:40:53;;;;;;;8.95;6.57;;;6.40;99.90;;;;;;5039372;28;20059;-58
2022/04/04 11:43:25;;;;;;;8.05;5.53;;;6.50;99.90;;;;;;5040319;28;20122;-62
2022/04/04 11:45:53;;;;;;;7.97;5.90;;;6.50;99.90;;;;;;5036969;28;20075;-58
2022/04/04 11:48:28;;;;;;;10.25;6.60;;;6.50;99.90;;;;;;5003944;28;20060;-58
2022/04/04 11:50:58;;;;;;;7.95;5.78;;;6.60;99.90;;;;;;5038928;28;20045;-60
2022/04/04 11:53:26;;;;;;;8.43;4.82;;;6.60;99.90;;;;;;5037296;28;20059;-58
2022/04/04 11:56:02;;;;;;;5.97;4.40;;;6.60;99.90;;;;;;5038353;28;20045;-58
2022/04/04 11:58:31;;;;;;;6.10;5.22;;;6.60;99.90;;;;;;5041012;28;20399;-52
2022/04/04 12:01:06;;;;;;;10.52;5.68;;;6.60;99.90;;;;;;5023764;28;20202;-50
2022/04/04 12:03:33;;;;;;;7.10;5.28;;;6.70;99.90;;;;;;5037348;28;20060;-52
2022/04/04 12:06:06;;;;;;;4.43;3.85;;;6.80;99.90;;;;;;5038606;28;20515;-52
2022/04/04 12:08:34;;;;;;;5.38;4.22;;;6.80;99.90;;;;;;5037244;28;20063;-52
2022/04/04 12:11:00;;;;;;;5.70;4.05;;;6.80;99.90;;;;;;5038397;28;20072;-53
2022/04/04 12:13:26;;;;;;;6.35;4.88;;;6.80;99.90;;;;;;5037862;28;20124;-54
2022/04/04 12:15:54;;;;;;;5.25;4.75;;;6.90;99.90;;;;;;5039394;28;20037;-48
2022/04/04 12:18:26;;;;;;;5.50;4.53;;;6.90;99.90;;;;;;5039342;28;20170;-52
2022/04/04 12:20:57;;;;;;;8.20;6.40;;;6.90;99.90;;;;;;5052754;28;20041;-50
2022/04/04 12:26:12;;;;;;;6.55;5.43;;;7.10;99.90;;;;;;5038398;28;20044;-52
2022/04/04 12:28:43;;;;;;;6.88;4.63;;;7.10;99.90;;;;;;5040647;28;20071;-56
2022/04/04 12:31:21;;;;;;;5.80;4.10;;;7.10;99.90;;;;;;5053793;28;20046;-52
2022/04/04 12:34:02;;;;;;;5.65;4.57;;;7.10;99.90;;;;;;5035394;28;20085;-54
2022/04/04 12:36:40;;;;;;;4.97;3.50;;;7.10;99.90;;;;;;5035654;28;20601;-54
2022/04/04 12:39:08;;;;;;;4.70;3.80;;;7.10;99.90;;;;;;5040327;28;20048;-53
2022/04/04 12:41:42;;;;;;;4.07;3.05;;;7.10;99.90;;;;;;5042794;28;20103;-55
2022/04/04 12:44:08;;;;;;;6.25;4.85;;;7.20;99.90;;;;;;5058801;28;20045;-51
2022/04/04 12:46:35;;;;;;;5.60;4.20;;;7.20;99.90;;;;;;5041223;28;20439;-54
2022/04/04 12:49:09;;;;;;;5.65;4.15;;;7.20;99.90;;;;;;5040589;28;20102;-53
2022/04/04 12:51:35;;;;;;;4.05;3.47;;;7.20;99.90;;;;;;5040205;28;20469;-59
2022/04/04 12:54:02;;;;;;;4.68;3.55;;;7.20;99.90;;;;;;5041681;28;20049;-59
2022/04/04 12:56:31;;;;;;;5.53;3.53;;;7.20;99.90;;;;;;5043421;28;20048;-59
2022/04/04 12:59:16;;;;;;;4.35;3.33;;;7.30;99.90;;;;;;5043640;28;20262;-59